Time;durP1;ratioP1;P1;durP2;ratioP2;P2;SDS_P1;SDS_P2;PMS_P1;PMS_P2;Temp;Humidity;BMP_temperature;BMP_pressure;BME280_temperature;BME280_humidity;BME280_pressure;Samples;Min_cycle;Max_cycle;Signal;HPM_P1;HPM_P2
2021/03/11 00:00:47;;;;;;;1.57;1.30;;;7.40;98.20;;;;;;5030315;28;20464;-81
2021/03/11 00:03:14;;;;;;;1.57;1.30;;;7.40;98.20;;;;;;5060306;28;20549;-80
2021/03/11 00:05:41;;;;;;;1.57;1.30;;;7.40;98.20;;;;;;5041955;28;20513;-80
2021/03/11 00:08:08;;;;;;;1.60;1.30;;;7.40;98.20;;;;;;5045152;28;20586;-79
2021/03/11 00:10:37;;;;;;;1.70;1.40;;;7.40;98.20;;;;;;5042991;28;20467;-80
2021/03/11 00:13:04;;;;;;;1.60;1.30;;;7.40;98.20;;;;;;5057223;28;21075;-80
2021/03/11 00:15:31;;;;;;;1.60;1.30;;;7.40;98.20;;;;;;5050772;28;20494;-81
2021/03/11 00:17:58;;;;;;;1.53;1.20;;;7.40;98.20;;;;;;5040471;28;20482;-80
2021/03/11 00:20:26;;;;;;;1.57;1.30;;;7.50;98.20;;;;;;5055384;28;20466;-82
2021/03/11 00:22:54;;;;;;;1.60;1.20;;;7.50;98.20;;;;;;5037871;28;20474;-81
2021/03/11 00:25:23;;;;;;;2.53;2.33;;;7.50;98.20;;;;;;5048305;28;20454;-79
2021/03/11 00:27:50;;;;;;;1.53;1.20;;;7.50;98.20;;;;;;5052245;28;20684;-81
2021/03/11 00:30:19;;;;;;;1.53;1.20;;;7.50;98.20;;;;;;5050760;28;20464;-80
2021/03/11 00:32:45;;;;;;;1.60;1.20;;;7.50;98.20;;;;;;5056597;28;20486;-81
2021/03/11 00:35:13;;;;;;;1.60;1.30;;;7.60;98.20;;;;;;5045602;28;20483;-81
2021/03/11 00:37:40;;;;;;;1.60;1.20;;;7.60;98.20;;;;;;5049714;28;20560;-80
2021/03/11 00:40:09;;;;;;;1.60;1.37;;;7.60;98.20;;;;;;5056902;28;20489;-80
2021/03/11 00:42:36;;;;;;;1.60;1.30;;;7.60;98.20;;;;;;5052341;28;20790;-81
2021/03/11 00:45:04;;;;;;;1.60;1.20;;;7.60;98.20;;;;;;5054312;28;20486;-80
2021/03/11 00:47:31;;;;;;;1.60;1.40;;;7.60;98.20;;;;;;5054471;28;20579;-81
2021/03/11 00:49:57;;;;;;;1.57;1.20;;;7.60;98.20;;;;;;5060725;28;20458;-79
2021/03/11 00:52:24;;;;;;;1.60;1.30;;;7.60;98.20;;;;;;5050164;28;20473;-79
2021/03/11 00:54:50;;;;;;;1.53;1.20;;;7.60;98.20;;;;;;5056190;28;20470;-79
2021/03/11 00:57:16;;;;;;;1.53;1.20;;;7.60;98.20;;;;;;5049641;28;20499;-79
2021/03/11 00:59:43;;;;;;;1.60;1.30;;;7.60;98.20;;;;;;5056349;28;20956;-79
2021/03/11 01:02:10;;;;;;;1.60;1.20;;;7.60;98.20;;;;;;5044342;28;20532;-79
2021/03/11 01:04:36;;;;;;;1.60;1.50;;;7.70;98.20;;;;;;5056319;28;21028;-78
2021/03/11 01:07:12;;;;;;;1.60;1.20;;;7.70;98.20;;;;;;5048719;28;20499;-80
2021/03/11 01:09:38;;;;;;;1.93;1.73;;;7.70;98.20;;;;;;5050434;28;20489;-79
2021/03/11 01:12:06;;;;;;;1.53;1.20;;;7.70;98.20;;;;;;5052894;28;20489;-80
2021/03/11 01:14:32;;;;;;;1.60;1.20;;;7.70;98.20;;;;;;5054503;28;20494;-79
2021/03/11 01:16:58;;;;;;;1.60;1.20;;;7.70;98.20;;;;;;5040207;28;20482;-80
2021/03/11 01:19:26;;;;;;;1.57;1.20;;;7.80;98.20;;;;;;5059991;28;20829;-79
2021/03/11 01:21:52;;;;;;;1.60;1.20;;;7.80;98.20;;;;;;5041419;28;20512;-80
2021/03/11 01:24:19;;;;;;;1.60;1.20;;;7.80;98.20;;;;;;5045766;28;20466;-80
2021/03/11 01:26:45;;;;;;;1.60;1.20;;;7.80;98.20;;;;;;5047285;28;20481;-79
2021/03/11 01:29:12;;;;;;;1.60;1.30;;;7.90;98.20;;;;;;5056552;28;20609;-78
2021/03/11 01:31:38;;;;;;;1.57;1.20;;;7.90;98.20;;;;;;5047010;28;20492;-80
2021/03/11 01:34:05;;;;;;;1.60;1.30;;;7.90;98.20;;;;;;5062908;28;20486;-80
2021/03/11 01:36:32;;;;;;;1.50;1.10;;;7.90;98.20;;;;;;5051490;28;20487;-80
2021/03/11 01:38:59;;;;;;;1.60;1.20;;;7.90;98.20;;;;;;5058657;28;20545;-80
2021/03/11 01:41:25;;;;;;;1.60;1.30;;;7.90;98.20;;;;;;5042865;28;20906;-80
2021/03/11 01:43:54;;;;;;;1.60;1.20;;;7.90;98.20;;;;;;5060217;28;20465;-80
2021/03/11 01:46:22;;;;;;;1.60;1.20;;;7.90;98.20;;;;;;5043914;28;20468;-81
2021/03/11 01:48:49;;;;;;;1.60;1.30;;;8.00;98.20;;;;;;5062999;28;20884;-81
2021/03/11 01:51:16;;;;;;;1.60;1.30;;;8.00;98.20;;;;;;5045754;28;20481;-79
2021/03/11 01:53:43;;;;;;;1.57;1.20;;;8.00;98.20;;;;;;5056624;28;20936;-80
2021/03/11 01:56:10;;;;;;;1.53;1.20;;;8.00;98.20;;;;;;5048065;28;20987;-82
2021/03/11 01:58:37;;;;;;;1.60;1.30;;;8.00;98.20;;;;;;5064195;28;20467;-82
2021/03/11 02:01:04;;;;;;;1.53;1.20;;;8.10;98.20;;;;;;5040983;28;21031;-81
2021/03/11 02:03:31;;;;;;;1.60;1.30;;;8.10;98.20;;;;;;5059179;28;20471;-80
2021/03/11 02:05:57;;;;;;;1.57;1.20;;;8.20;98.20;;;;;;5047184;28;20760;-80
2021/03/11 02:08:24;;;;;;;1.60;1.40;;;8.20;98.20;;;;;;5063425;28;20469;-81
2021/03/11 02:10:51;;;;;;;1.50;1.17;;;8.20;98.20;;;;;;5033172;28;20516;-82
2021/03/11 02:13:31;;;;;;;1.60;1.20;;;8.20;98.20;;;;;;5063128;28;20501;-82
2021/03/11 02:16:06;;;;;;;1.90;1.70;;;8.30;98.20;;;;;;5041089;28;20524;-83
2021/03/11 02:18:39;;;;;;;1.57;1.20;;;8.30;98.20;;;;;;5062900;28;20485;-82
2021/03/11 02:21:08;;;;;;;1.60;1.30;;;8.40;98.20;;;;;;5043984;28;20827;-81
2021/03/11 02:24:28;;;;;;;1.57;1.20;;;8.40;98.20;;;;;;5060312;28;20831;-81
2021/03/11 02:27:30;;;;;;;1.60;1.43;;;8.40;98.20;;;;;;5045980;28;20579;-80
2021/03/11 02:29:58;;;;;;;1.60;1.20;;;8.40;98.20;;;;;;5059042;28;20853;-81
2021/03/11 02:32:26;;;;;;;1.50;1.10;;;8.40;98.20;;;;;;5037274;28;20571;-81
2021/03/11 02:34:54;;;;;;;1.57;1.20;;;8.40;98.20;;;;;;5049505;28;20628;-80
2021/03/11 02:37:26;;;;;;;1.57;1.20;;;8.40;98.20;;;;;;5047920;28;20485;-80
2021/03/11 02:39:55;;;;;;;1.53;1.20;;;8.50;98.20;;;;;;5054133;28;21015;-81
2021/03/11 02:42:24;;;;;;;1.60;1.30;;;8.50;98.20;;;;;;5055447;28;20472;-79
2021/03/11 02:44:52;;;;;;;1.57;1.20;;;8.50;98.20;;;;;;5059567;28;20451;-82
2021/03/11 02:47:19;;;;;;;1.53;1.20;;;8.50;98.20;;;;;;5049069;28;20517;-81
2021/03/11 02:49:47;;;;;;;1.77;1.57;;;8.50;98.20;;;;;;5057197;28;20458;-81
2021/03/11 02:52:14;;;;;;;1.60;1.20;;;8.50;98.20;;;;;;5048082;28;20521;-80
2021/03/11 02:54:42;;;;;;;1.57;1.20;;;8.50;98.20;;;;;;5057072;28;20486;-80
2021/03/11 02:57:10;;;;;;;1.60;1.20;;;8.50;98.20;;;;;;5043352;28;20474;-79
2021/03/11 02:59:37;;;;;;;1.60;1.20;;;8.60;98.20;;;;;;5054843;28;20461;-81
2021/03/11 03:02:05;;;;;;;1.57;1.20;;;8.60;98.20;;;;;;5051541;28;20528;-82
2021/03/11 03:04:34;;;;;;;1.57;1.20;;;8.60;98.20;;;;;;5068092;28;20459;-81
2021/03/11 03:07:01;;;;;;;1.53;1.10;;;8.60;98.20;;;;;;5044855;28;20475;-80
2021/03/11 03:09:29;;;;;;;1.57;1.20;;;8.60;98.20;;;;;;5053882;28;20484;-80
2021/03/11 03:11:56;;;;;;;1.60;1.40;;;8.60;98.20;;;;;;5033779;28;20475;-80
2021/03/11 03:14:23;;;;;;;1.57;1.20;;;8.60;98.20;;;;;;5050132;28;20482;-81
2021/03/11 03:16:50;;;;;;;1.57;1.10;;;8.60;98.20;;;;;;5045867;28;20771;-80
2021/03/11 03:19:17;;;;;;;1.53;1.20;;;8.60;98.20;;;;;;5062037;28;20458;-81
2021/03/11 03:21:45;;;;;;;1.60;1.30;;;8.60;98.20;;;;;;5046578;28;20473;-80
2021/03/11 03:24:14;;;;;;;1.60;1.30;;;8.60;98.20;;;;;;5064869;28;20457;-81
2021/03/11 03:26:41;;;;;;;1.60;1.20;;;8.60;98.20;;;;;;5046825;28;20477;-81
2021/03/11 03:29:07;;;;;;;1.57;1.20;;;8.60;98.20;;;;;;5062987;28;20475;-80
2021/03/11 03:31:34;;;;;;;1.60;1.20;;;8.60;98.20;;;;;;5047302;28;20497;-82
2021/03/11 03:34:00;;;;;;;1.50;1.20;;;8.60;98.20;;;;;;5060871;28;20498;-82
2021/03/11 03:36:27;;;;;;;1.57;1.20;;;8.50;98.20;;;;;;5050579;28;20481;-79
2021/03/11 03:38:55;;;;;;;1.50;1.10;;;8.50;98.20;;;;;;5059508;28;20471;-79
2021/03/11 03:41:22;;;;;;;1.60;1.27;;;8.50;98.20;;;;;;5048676;28;20489;-80
2021/03/11 03:43:50;;;;;;;1.60;1.20;;;8.50;98.20;;;;;;5063841;28;20549;-80
2021/03/11 03:46:22;;;;;;;1.60;1.17;;;8.40;98.20;;;;;;5051176;28;20478;-80
2021/03/11 03:48:52;;;;;;;1.57;1.20;;;8.40;98.20;;;;;;5062501;28;20461;-79
2021/03/11 03:51:21;;;;;;;1.57;1.20;;;8.40;98.20;;;;;;5041884;28;20488;-81
2021/03/11 03:53:52;;;;;;;1.60;1.20;;;8.40;98.20;;;;;;5059051;28;20486;-80
2021/03/11 03:56:22;;;;;;;1.57;1.17;;;8.40;98.20;;;;;;5044916;28;20478;-80
2021/03/11 03:58:49;;;;;;;1.60;1.10;;;8.30;98.20;;;;;;5057515;28;20462;-80
2021/03/11 04:01:17;;;;;;;1.50;1.17;;;8.30;98.20;;;;;;5038917;28;20507;-81
2021/03/11 04:03:44;;;;;;;1.60;1.20;;;8.30;98.20;;;;;;5058847;28;20463;-80
2021/03/11 04:06:13;;;;;;;1.57;1.20;;;8.40;98.20;;;;;;5050119;28;20485;-81
2021/03/11 04:08:41;;;;;;;1.57;1.20;;;8.40;98.20;;;;;;5060710;28;20463;-81
2021/03/11 04:11:08;;;;;;;1.60;1.50;;;8.40;98.20;;;;;;5042135;28;20831;-78
2021/03/11 04:13:36;;;;;;;1.53;1.20;;;8.40;98.20;;;;;;5062430;28;20566;-79
2021/03/11 04:16:02;;;;;;;1.60;1.30;;;8.40;98.20;;;;;;5041539;28;20477;-80
2021/03/11 04:18:29;;;;;;;1.57;1.20;;;8.40;98.20;;;;;;5051553;28;20524;-81
2021/03/11 04:20:56;;;;;;;1.60;1.30;;;8.40;98.20;;;;;;5049122;28;20465;-80
2021/03/11 04:23:24;;;;;;;1.50;1.20;;;8.40;98.20;;;;;;5057366;28;20455;-81
2021/03/11 04:25:50;;;;;;;3.30;3.00;;;8.40;98.20;;;;;;5043247;28;20462;-80
2021/03/11 04:28:17;;;;;;;1.53;1.20;;;8.40;98.20;;;;;;5067265;28;20466;-79
2021/03/11 04:30:45;;;;;;;1.53;1.17;;;8.50;98.20;;;;;;5051197;28;20454;-80
2021/03/11 04:33:13;;;;;;;1.60;1.40;;;8.50;98.20;;;;;;5026661;28;20489;-79
2021/03/11 04:35:39;;;;;;;1.60;1.30;;;8.50;98.20;;;;;;5055721;28;20604;-81
2021/03/11 04:38:06;;;;;;;1.50;1.20;;;8.60;98.20;;;;;;5063514;28;20485;-82
2021/03/11 04:40:32;;;;;;;1.60;1.30;;;8.60;98.20;;;;;;5048556;28;20475;-81
2021/03/11 04:42:59;;;;;;;1.57;1.20;;;8.60;98.20;;;;;;5055199;28;21012;-79
2021/03/11 04:45:25;;;;;;;1.60;1.20;;;8.70;98.20;;;;;;5050668;28;20473;-81
2021/03/11 04:47:53;;;;;;;1.57;1.27;;;8.70;98.20;;;;;;5057133;28;20473;-79
2021/03/11 04:50:19;;;;;;;1.60;1.30;;;8.70;98.20;;;;;;5048168;28;20463;-78
2021/03/11 04:52:46;;;;;;;1.57;1.20;;;8.70;98.20;;;;;;5055365;28;20493;-80
2021/03/11 04:55:12;;;;;;;1.60;1.20;;;8.70;98.20;;;;;;5050740;28;20481;-80
2021/03/11 04:57:39;;;;;;;1.53;1.13;;;8.70;98.20;;;;;;5058611;28;20481;-79
2021/03/11 05:00:07;;;;;;;1.60;1.33;;;8.70;98.20;;;;;;5056014;28;20469;-79
2021/03/11 05:02:34;;;;;;;1.57;1.20;;;8.80;98.20;;;;;;5044963;28;20486;-79
2021/03/11 05:05:07;;;;;;;1.53;1.20;;;8.80;98.20;;;;;;5059163;28;20515;-80
2021/03/11 05:07:33;;;;;;;1.57;1.20;;;8.80;98.20;;;;;;5061726;28;20496;-78
2021/03/11 05:09:59;;;;;;;1.57;1.20;;;8.80;98.20;;;;;;5061295;28;20458;-80
2021/03/11 05:12:26;;;;;;;1.60;1.20;;;8.80;98.20;;;;;;5057600;28;21056;-80
2021/03/11 05:14:52;;;;;;;1.50;1.20;;;8.80;98.20;;;;;;5065885;28;20548;-80
2021/03/11 05:17:18;;;;;;;1.60;1.20;;;8.80;98.20;;;;;;5048404;28;20485;-80
2021/03/11 05:19:44;;;;;;;1.60;1.30;;;8.90;98.20;;;;;;5059316;28;20551;-80
2021/03/11 05:22:12;;;;;;;1.70;1.60;;;8.90;98.20;;;;;;5053281;28;20476;-80
2021/03/11 05:24:38;;;;;;;1.60;1.30;;;8.90;98.20;;;;;;5061551;28;20518;-80
2021/03/11 05:27:05;;;;;;;1.60;1.20;;;8.90;98.20;;;;;;5035855;28;20486;-77
2021/03/11 05:29:31;;;;;;;1.57;1.20;;;8.90;98.20;;;;;;5058152;28;20472;-77
2021/03/11 05:31:58;;;;;;;1.50;1.20;;;8.90;98.20;;;;;;5050668;28;20486;-80
2021/03/11 05:34:24;;;;;;;1.57;1.20;;;8.90;98.20;;;;;;5060277;28;21036;-77
2021/03/11 05:36:50;;;;;;;1.57;1.17;;;8.90;98.20;;;;;;5047187;28;20632;-82
2021/03/11 05:39:17;;;;;;;1.60;1.20;;;8.90;98.20;;;;;;5061553;28;20478;-82
2021/03/11 05:41:45;;;;;;;1.60;1.20;;;8.80;98.20;;;;;;5038723;28;20563;-81
2021/03/11 05:44:12;;;;;;;1.60;1.37;;;8.80;98.20;;;;;;5058426;28;20477;-82
2021/03/11 05:46:39;;;;;;;1.53;1.13;;;8.80;98.20;;;;;;5041782;28;20606;-81
2021/03/11 05:49:08;;;;;;;1.57;1.20;;;8.80;98.20;;;;;;5050177;28;20459;-80
2021/03/11 05:51:35;;;;;;;1.50;1.20;;;8.80;98.20;;;;;;5045565;28;20566;-81
2021/03/11 05:54:03;;;;;;;1.57;1.20;;;8.80;98.20;;;;;;5059711;28;20483;-80
2021/03/11 05:56:30;;;;;;;1.57;1.20;;;8.80;98.20;;;;;;5051340;28;20485;-80
2021/03/11 05:58:57;;;;;;;1.50;1.20;;;8.80;98.20;;;;;;5057589;28;20538;-79
2021/03/11 06:01:25;;;;;;;1.60;1.40;;;8.80;98.20;;;;;;5034321;28;20568;-79
2021/03/11 06:03:54;;;;;;;1.57;1.20;;;8.80;98.20;;;;;;5058676;28;20547;-79
2021/03/11 06:06:21;;;;;;;1.57;1.20;;;8.80;98.20;;;;;;5044971;28;20488;-78
2021/03/11 06:08:48;;;;;;;1.60;1.33;;;8.80;98.20;;;;;;5057187;28;20473;-78
2021/03/11 06:11:17;;;;;;;1.60;1.30;;;8.80;98.20;;;;;;5040627;28;20474;-80
2021/03/11 06:13:45;;;;;;;1.53;1.20;;;8.80;98.20;;;;;;5052767;28;20493;-80
2021/03/11 06:16:16;;;;;;;1.60;1.30;;;8.80;98.20;;;;;;5039968;28;20500;-80
2021/03/11 06:18:43;;;;;;;1.60;1.20;;;8.90;98.20;;;;;;5060553;28;20497;-79
2021/03/11 06:21:09;;;;;;;1.53;1.20;;;8.90;98.20;;;;;;5042890;28;20483;-79
2021/03/11 06:23:36;;;;;;;1.57;1.20;;;9.00;98.20;;;;;;5064476;28;20498;-77
2021/03/11 06:26:02;;;;;;;1.60;1.20;;;9.00;98.20;;;;;;5041760;28;20969;-78
2021/03/11 06:28:52;;;;;;;1.50;1.10;;;9.00;98.20;;;;;;5057877;28;20492;-79
2021/03/11 06:31:19;;;;;;;1.60;1.30;;;9.00;98.20;;;;;;5040464;28;20589;-79
2021/03/11 06:33:46;;;;;;;1.60;1.30;;;9.10;98.20;;;;;;5065308;28;20520;-79
2021/03/11 06:36:13;;;;;;;1.53;1.10;;;9.10;98.20;;;;;;5036318;28;20481;-78
2021/03/11 06:38:40;;;;;;;1.60;1.27;;;9.20;98.20;;;;;;5057647;28;20466;-78
2021/03/11 06:41:06;;;;;;;1.53;1.20;;;9.20;98.20;;;;;;5040070;28;20868;-79
2021/03/11 06:43:33;;;;;;;1.60;1.30;;;9.30;98.20;;;;;;5049497;28;20459;-79
2021/03/11 06:46:07;;;;;;;1.53;1.20;;;9.40;98.20;;;;;;5043088;28;20457;-79
2021/03/11 06:48:33;;;;;;;1.57;1.13;;;9.50;98.20;;;;;;5061507;28;20468;-80
2021/03/11 06:51:01;;;;;;;1.57;1.10;;;9.60;98.20;;;;;;5041748;28;20465;-79
2021/03/11 06:53:28;;;;;;;1.60;1.27;;;9.60;98.20;;;;;;5059950;28;20973;-79
2021/03/11 06:55:54;;;;;;;1.53;1.20;;;9.70;98.20;;;;;;5045980;28;20518;-78
2021/03/11 06:58:22;;;;;;;1.53;1.10;;;9.70;98.20;;;;;;5059590;28;20462;-79
2021/03/11 07:00:49;;;;;;;1.60;1.20;;;9.80;98.20;;;;;;5035965;28;20469;-79
2021/03/11 07:03:16;;;;;;;1.53;1.20;;;9.80;98.20;;;;;;5060934;28;20477;-79
2021/03/11 07:05:44;;;;;;;1.57;1.10;;;9.90;98.20;;;;;;5056897;28;20552;-79
2021/03/11 07:08:14;;;;;;;1.53;1.10;;;10.00;98.20;;;;;;5055090;28;20497;-79
2021/03/11 07:10:42;;;;;;;1.57;1.20;;;10.00;98.20;;;;;;5044188;28;20871;-79
2021/03/11 07:13:08;;;;;;;1.50;1.10;;;10.10;98.20;;;;;;5053743;28;20482;-79
2021/03/11 07:15:37;;;;;;;1.60;1.20;;;10.20;98.20;;;;;;5050473;28;20459;-79
2021/03/11 07:18:07;;;;;;;1.60;1.10;;;10.20;98.20;;;;;;5051680;28;20556;-79
2021/03/11 07:20:35;;;;;;;1.60;1.37;;;10.20;98.20;;;;;;5041391;28;20470;-79
2021/03/11 07:23:08;;;;;;;1.57;1.10;;;10.30;98.20;;;;;;5052706;28;20485;-78
2021/03/11 07:25:35;;;;;;;1.53;1.10;;;10.30;98.20;;;;;;5050056;28;20473;-79
2021/03/11 07:28:04;;;;;;;1.57;1.10;;;10.30;98.20;;;;;;5050966;28;20981;-80
2021/03/11 07:30:31;;;;;;;1.53;1.20;;;10.30;98.20;;;;;;5053917;28;20475;-79
2021/03/11 07:33:00;;;;;;;1.53;1.10;;;10.30;98.20;;;;;;5048423;28;20486;-78
2021/03/11 07:35:28;;;;;;;1.60;1.17;;;10.30;98.20;;;;;;5045328;28;20459;-77
2021/03/11 07:37:58;;;;;;;1.57;1.10;;;10.40;98.20;;;;;;5049051;28;20534;-77
2021/03/11 07:40:26;;;;;;;1.60;1.20;;;10.40;98.20;;;;;;5047684;28;20550;-77
2021/03/11 07:42:53;;;;;;;1.53;1.10;;;10.40;98.20;;;;;;5036986;28;20482;-77
2021/03/11 07:45:20;;;;;;;1.60;1.10;;;10.50;98.20;;;;;;5050660;28;20517;-77
2021/03/11 07:47:47;;;;;;;1.57;1.10;;;10.60;98.20;;;;;;5047136;28;20477;-77
2021/03/11 07:50:15;;;;;;;1.50;1.10;;;10.70;98.20;;;;;;5047136;28;20458;-77
2021/03/11 07:52:42;;;;;;;1.57;1.10;;;10.80;98.20;;;;;;5052757;28;20484;-78
2021/03/11 07:55:12;;;;;;;1.60;1.20;;;11.00;98.20;;;;;;5054493;28;20489;-77
2021/03/11 07:57:41;;;;;;;1.60;1.10;;;11.10;98.20;;;;;;5062950;28;20575;-77
2021/03/11 08:00:09;;;;;;;1.60;1.03;;;11.20;98.20;;;;;;5052891;28;20517;-78
2021/03/11 08:02:38;;;;;;;1.53;1.10;;;11.40;98.20;;;;;;5052063;28;21026;-79
2021/03/11 08:05:05;;;;;;;1.60;1.10;;;11.40;98.20;;;;;;5050156;28;20589;-78
2021/03/11 08:07:32;;;;;;;1.60;1.10;;;11.50;98.20;;;;;;5039456;28;20474;-78
2021/03/11 08:09:59;;;;;;;1.57;1.10;;;11.50;98.20;;;;;;5047962;28;20965;-79
2021/03/11 08:12:28;;;;;;;1.60;1.20;;;11.60;98.20;;;;;;5036988;28;20905;-79
2021/03/11 08:14:55;;;;;;;2.03;1.83;;;11.60;98.20;;;;;;5050023;28;20838;-77
2021/03/11 08:17:43;;;;;;;1.53;1.00;;;11.70;98.20;;;;;;5042680;28;20489;-79
2021/03/11 08:20:37;;;;;;;1.60;1.10;;;11.70;98.20;;;;;;5046431;28;20467;-78
2021/03/11 08:23:10;;;;;;;1.53;1.10;;;11.80;98.20;;;;;;5048039;28;20484;-77
2021/03/11 08:25:54;;;;;;;1.53;1.00;;;11.80;98.20;;;;;;5037661;28;20468;-77
2021/03/11 08:28:38;;;;;;;1.57;1.10;;;11.80;98.20;;;;;;5022509;28;20956;-78
2021/03/11 08:31:06;;;;;;;1.60;1.10;;;11.90;98.20;;;;;;5034209;28;20474;-78
2021/03/11 08:33:56;;;;;;;1.57;1.00;;;11.90;98.20;;;;;;5048249;28;20843;-78
2021/03/11 08:36:44;;;;;;;1.57;1.10;;;11.70;98.20;;;;;;5035496;28;20492;-82
2021/03/11 08:39:34;;;;;;;1.57;1.10;;;11.50;98.20;;;;;;5055041;28;20509;-84
2021/03/11 08:42:19;;;;;;;1.50;1.00;;;11.20;98.20;;;;;;5036746;28;20492;-79
2021/03/11 08:44:46;;;;;;;1.57;1.10;;;11.00;98.20;;;;;;5042916;28;20465;-81
2021/03/11 08:47:13;;;;;;;1.60;1.10;;;10.80;98.20;;;;;;5041739;28;20490;-81
2021/03/11 08:49:44;;;;;;;1.57;1.10;;;10.70;98.20;;;;;;5057568;28;20470;-81
2021/03/11 08:52:38;;;;;;;1.60;1.20;;;10.50;98.20;;;;;;5047790;28;20488;-80
2021/03/11 08:55:33;;;;;;;1.60;1.30;;;10.40;98.20;;;;;;5043920;28;20770;-81
2021/03/11 08:58:00;;;;;;;1.60;1.20;;;10.30;98.20;;;;;;5018992;28;20483;-79
2021/03/11 09:01:05;;;;;;;1.60;1.20;;;10.20;98.20;;;;;;5044692;28;20754;-79
2021/03/11 09:03:43;;;;;;;1.57;1.10;;;10.10;98.20;;;;;;5016711;28;20506;-78
2021/03/11 09:06:11;;;;;;;1.60;1.10;;;10.00;98.20;;;;;;5034877;28;20503;-79
2021/03/11 09:08:45;;;;;;;3.63;3.33;;;9.90;98.20;;;;;;5054011;28;20466;-77
2021/03/11 09:11:12;;;;;;;1.60;1.30;;;9.90;98.20;;;;;;5039742;28;21402;-78
2021/03/11 09:13:42;;;;;;;1.60;1.10;;;9.90;98.20;;;;;;5051971;28;20547;-80
2021/03/11 09:16:10;;;;;;;1.60;1.20;;;9.80;98.20;;;;;;5028503;28;20539;-79
2021/03/11 09:18:37;;;;;;;1.60;1.10;;;9.80;98.20;;;;;;5055465;28;20470;-78
2021/03/11 09:21:05;;;;;;;1.60;1.20;;;9.70;98.20;;;;;;5037623;28;20470;-79
2021/03/11 09:23:36;;;;;;;1.60;1.17;;;9.70;98.20;;;;;;5058781;28;20768;-78
2021/03/11 09:26:03;;;;;;;1.60;1.23;;;9.70;98.20;;;;;;5031237;28;20471;-77
2021/03/11 09:28:29;;;;;;;1.57;1.10;;;9.70;98.20;;;;;;5042666;28;20504;-76
2021/03/11 09:30:56;;;;;;;1.57;1.10;;;9.80;98.20;;;;;;5032285;28;20488;-77
2021/03/11 09:33:23;;;;;;;1.53;1.10;;;9.80;98.20;;;;;;5054951;28;21012;-76
2021/03/11 09:35:50;;;;;;;1.60;1.20;;;9.90;98.20;;;;;;5028225;28;21047;-76
2021/03/11 09:38:22;;;;;;;1.60;1.20;;;9.90;98.20;;;;;;5060057;28;21019;-77
2021/03/11 09:40:50;;;;;;;1.60;1.20;;;9.90;98.20;;;;;;5035943;28;20498;-77
2021/03/11 09:43:21;;;;;;;1.60;1.10;;;10.00;98.20;;;;;;5060578;28;20492;-75
2021/03/11 09:45:50;;;;;;;1.57;1.10;;;10.00;98.20;;;;;;5040238;28;20473;-76
2021/03/11 09:48:19;;;;;;;1.60;1.30;;;10.10;98.20;;;;;;5062672;28;20457;-77
2021/03/11 09:50:52;;;;;;;1.57;1.10;;;10.10;98.20;;;;;;5044380;28;20516;-76
2021/03/11 09:53:20;;;;;;;1.60;1.30;;;10.20;98.20;;;;;;5053743;28;20525;-76
2021/03/11 09:55:46;;;;;;;1.53;1.10;;;10.40;98.20;;;;;;5040745;28;20512;-78
2021/03/11 09:58:17;;;;;;;1.60;1.10;;;10.70;98.20;;;;;;5053290;28;20474;-76
2021/03/11 10:00:44;;;;;;;1.60;1.30;;;11.10;98.20;;;;;;5043365;28;20467;-77
2021/03/11 10:03:24;;;;;;;1.60;1.20;;;11.40;98.20;;;;;;5050817;28;20494;-77
2021/03/11 10:05:54;;;;;;;1.60;1.10;;;11.70;98.20;;;;;;5036026;28;20463;-77
2021/03/11 10:08:40;;;;;;;1.60;1.20;;;12.00;98.20;;;;;;5048772;28;20475;-78
2021/03/11 10:11:09;;;;;;;1.60;1.10;;;12.20;98.20;;;;;;5040001;28;20490;-77
2021/03/11 10:13:38;;;;;;;1.57;1.10;;;12.40;98.20;;;;;;5064309;28;20988;-77
2021/03/11 10:16:05;;;;;;;1.60;1.00;;;12.60;98.20;;;;;;5037604;28;20474;-77
2021/03/11 10:18:32;;;;;;;1.60;1.00;;;12.80;98.20;;;;;;5054625;28;20481;-77
2021/03/11 10:21:09;;;;;;;1.60;1.00;;;13.00;98.20;;;;;;5036607;28;20474;-79
2021/03/11 10:23:38;;;;;;;1.60;1.10;;;13.10;98.00;;;;;;5056113;28;20462;-78
2021/03/11 10:26:20;;;;;;;1.60;1.03;;;13.30;97.60;;;;;;5039812;28;20931;-77
2021/03/11 10:28:48;;;;;;;1.57;1.00;;;13.40;96.00;;;;;;5049344;28;20573;-80
2021/03/11 10:31:15;;;;;;;1.50;1.00;;;13.50;95.20;;;;;;5037940;28;20536;-78
2021/03/11 10:33:42;;;;;;;1.57;1.00;;;13.70;95.70;;;;;;5042206;28;21853;-77
2021/03/11 10:36:18;;;;;;;1.57;0.97;;;13.80;94.90;;;;;;5031583;28;20571;-78
2021/03/11 10:39:08;;;;;;;1.50;1.00;;;13.90;94.20;;;;;;5056163;28;20505;-77
2021/03/11 10:41:35;;;;;;;1.60;1.10;;;14.10;91.90;;;;;;5044107;28;20486;-77
2021/03/11 10:44:13;;;;;;;1.60;1.10;;;14.20;93.10;;;;;;5059778;28;20459;-77
2021/03/11 10:46:41;;;;;;;1.53;1.00;;;14.50;92.70;;;;;;5039764;28;20523;-78
2021/03/11 10:49:08;;;;;;;1.50;1.00;;;14.70;92.50;;;;;;5052990;28;20947;-78
2021/03/11 10:51:36;;;;;;;1.50;0.93;;;14.80;90.50;;;;;;5039107;28;20555;-78
2021/03/11 10:54:03;;;;;;;1.60;1.17;;;14.90;90.50;;;;;;5059396;28;20486;-78
2021/03/11 10:56:29;;;;;;;1.57;1.00;;;15.00;89.70;;;;;;5037479;28;20484;-77
2021/03/11 10:59:05;;;;;;;1.57;1.00;;;15.00;89.10;;;;;;5056979;28;20466;-78
2021/03/11 11:01:33;;;;;;;1.60;1.00;;;15.10;88.90;;;;;;5035123;28;20839;-78
2021/03/11 11:04:00;;;;;;;1.53;1.00;;;15.20;87.00;;;;;;5053009;28;20904;-80
2021/03/11 11:06:29;;;;;;;1.53;1.00;;;15.20;85.30;;;;;;5035842;28;20609;-79
2021/03/11 11:08:56;;;;;;;1.87;1.67;;;15.30;85.10;;;;;;5059955;28;20569;-79
2021/03/11 11:11:23;;;;;;;1.60;1.00;;;15.40;84.60;;;;;;5033210;28;20575;-78
2021/03/11 11:13:50;;;;;;;1.60;1.00;;;15.50;84.70;;;;;;5063861;28;20808;-79
2021/03/11 11:16:16;;;;;;;1.57;1.07;;;15.50;83.50;;;;;;5036203;28;20567;-77
2021/03/11 11:18:43;;;;;;;1.53;1.00;;;15.30;83.30;;;;;;5052642;28;20661;-79
2021/03/11 11:21:10;;;;;;;1.57;1.00;;;15.30;83.20;;;;;;5033460;28;20510;-78
2021/03/11 11:23:37;;;;;;;1.53;1.00;;;15.30;83.30;;;;;;5057498;28;20466;-78
2021/03/11 11:26:04;;;;;;;1.50;1.00;;;15.40;82.20;;;;;;5041421;28;20469;-78
2021/03/11 11:28:31;;;;;;;1.57;1.00;;;15.60;80.20;;;;;;5055749;28;21002;-78
2021/03/11 11:30:58;;;;;;;1.57;1.00;;;15.70;80.00;;;;;;5040958;28;20927;-78
2021/03/11 11:33:24;;;;;;;1.50;1.00;;;15.70;79.30;;;;;;5056716;28;20471;-78
2021/03/11 11:35:51;;;;;;;1.53;1.00;;;15.80;79.50;;;;;;5033829;28;20466;-78
2021/03/11 11:38:18;;;;;;;1.50;0.93;;;15.70;79.00;;;;;;5060492;28;20462;-79
2021/03/11 11:40:45;;;;;;;1.53;1.00;;;15.70;78.90;;;;;;5039154;28;20801;-79
2021/03/11 11:43:12;;;;;;;1.57;1.00;;;15.80;79.80;;;;;;5012986;28;20482;-76
2021/03/11 11:45:38;;;;;;;1.50;1.00;;;15.70;79.30;;;;;;5049809;28;20544;-78
2021/03/11 11:48:05;;;;;;;1.60;1.10;;;15.70;80.00;;;;;;5040083;28;20651;-77
2021/03/11 11:50:32;;;;;;;1.60;0.90;;;15.80;79.10;;;;;;5048613;28;20815;-78
2021/03/11 11:52:58;;;;;;;1.57;1.00;;;15.90;79.40;;;;;;5050503;28;20482;-77
2021/03/11 11:55:24;;;;;;;1.50;1.00;;;15.90;78.20;;;;;;5046719;28;20804;-78
2021/03/11 11:57:50;;;;;;;1.50;0.97;;;15.80;78.80;;;;;;5043311;28;20477;-75
2021/03/11 12:00:19;;;;;;;1.50;1.00;;;15.70;78.10;;;;;;5044858;28;20657;-78
2021/03/11 12:02:45;;;;;;;1.57;1.00;;;15.60;79.20;;;;;;5045336;28;20485;-76
2021/03/11 12:05:14;;;;;;;1.53;0.90;;;15.60;79.10;;;;;;5041164;28;20463;-77
2021/03/11 12:07:41;;;;;;;1.50;1.00;;;15.70;79.10;;;;;;5045376;28;20489;-76
2021/03/11 12:10:09;;;;;;;1.53;1.00;;;15.70;78.50;;;;;;5047180;28;20558;-76
2021/03/11 12:12:36;;;;;;;1.53;1.00;;;15.80;79.40;;;;;;5046411;28;20481;-76
2021/03/11 12:15:03;;;;;;;1.50;1.00;;;16.00;80.70;;;;;;5045540;28;20487;-77
2021/03/11 12:17:31;;;;;;;1.60;1.27;;;16.10;79.20;;;;;;5041586;28;20482;-76
2021/03/11 12:19:57;;;;;;;1.60;1.00;;;16.10;79.40;;;;;;5042973;28;20966;-77
2021/03/11 12:22:24;;;;;;;1.50;1.00;;;16.20;78.20;;;;;;5044202;28;20546;-76
2021/03/11 12:24:50;;;;;;;1.53;1.00;;;16.20;78.90;;;;;;5051320;28;20488;-76
2021/03/11 12:27:16;;;;;;;1.60;1.00;;;16.00;77.50;;;;;;5047728;28;20486;-78
2021/03/11 12:29:42;;;;;;;1.53;1.00;;;16.00;78.00;;;;;;5050964;28;20471;-76
2021/03/11 12:32:09;;;;;;;1.50;1.00;;;15.90;78.00;;;;;;5052345;28;21037;-77
2021/03/11 12:34:36;;;;;;;1.50;1.00;;;15.80;77.20;;;;;;5048838;28;20856;-78
2021/03/11 12:37:03;;;;;;;1.50;1.00;;;15.70;77.50;;;;;;5040230;28;20893;-77
2021/03/11 12:39:29;;;;;;;1.53;1.00;;;15.70;76.50;;;;;;5047974;28;20467;-78
2021/03/11 12:41:55;;;;;;;1.50;1.00;;;15.80;77.20;;;;;;5040490;28;21165;-77
2021/03/11 12:44:21;;;;;;;1.53;1.00;;;16.00;77.00;;;;;;5052095;28;20826;-78
2021/03/11 12:46:48;;;;;;;1.53;1.00;;;16.10;75.90;;;;;;5041870;28;20485;-77
2021/03/11 12:49:14;;;;;;;1.50;1.00;;;16.10;76.00;;;;;;5047855;28;21085;-77
2021/03/11 12:51:41;;;;;;;1.50;1.10;;;16.20;76.30;;;;;;5033493;28;20921;-77
2021/03/11 12:54:08;;;;;;;1.57;1.00;;;16.20;75.70;;;;;;5051405;28;20500;-77
2021/03/11 12:56:34;;;;;;;1.50;1.00;;;16.20;75.30;;;;;;5043707;28;20848;-78
2021/03/11 12:59:01;;;;;;;1.53;1.00;;;16.20;76.00;;;;;;5051939;28;20700;-76
2021/03/11 13:01:28;;;;;;;1.57;1.00;;;16.30;76.50;;;;;;5032896;28;20493;-76